createdAt,value
2022-11-02T00:01:28.181Z,98925.81
2022-11-02T00:03:56.194Z,98918.00
2022-11-02T00:06:24.031Z,98933.63
2022-11-02T00:08:53.187Z,98912.81
2022-11-02T00:11:21.219Z,98950.13
2022-11-02T00:13:49.028Z,98950.94
2022-11-02T00:16:21.095Z,98958.78
2022-11-02T00:18:52.592Z,98966.75
2022-11-02T00:21:22.356Z,98969.94
2022-11-02T00:23:50.957Z,98962.81
2022-11-02T00:26:21.237Z,99001.81
2022-11-02T00:28:49.209Z,99012.44
2022-11-02T00:31:17.516Z,98981.16
2022-11-02T00:33:45.314Z,98994.28
2022-11-02T00:36:13.518Z,98983.09
2022-11-02T00:38:41.527Z,98965.75
2022-11-02T00:41:09.482Z,98983.91
2022-11-02T00:43:38.685Z,98967.44
2022-11-02T00:46:06.956Z,98946.47
2022-11-02T00:48:35.096Z,98987.44
2022-11-02T00:51:03.529Z,98997.94
2022-11-02T00:53:31.579Z,99040.13
2022-11-02T00:55:59.368Z,99015.94
2022-11-02T00:58:27.268Z,99026.28
2022-11-02T01:00:57.372Z,99030.91
2022-11-02T01:03:25.278Z,99020.28
2022-11-02T01:05:53.128Z,99031.44
2022-11-02T01:08:21.195Z,99035.09
2022-11-02T01:10:49.242Z,99036.75
2022-11-02T01:13:17.218Z,99042.09
2022-11-02T01:15:45.300Z,99074.09
2022-11-02T01:18:14.677Z,99047.25
2022-11-02T01:20:42.643Z,99023.91
2022-11-02T01:23:10.459Z,99062.75
2022-11-02T01:25:38.417Z,99069.75
2022-11-02T01:28:06.741Z,99056.06
2022-11-02T01:30:34.866Z,99099.09
2022-11-02T01:33:02.735Z,99120.94
2022-11-02T01:35:31.934Z,99101.06
2022-11-02T01:37:59.673Z,99104.41
2022-11-02T01:40:27.527Z,99091.28
2022-11-02T01:42:55.524Z,99122.63
2022-11-02T01:45:23.253Z,99123.47
2022-11-02T01:47:51.318Z,99109.63
2022-11-02T01:50:22.676Z,99099.09
2022-11-02T01:52:51.869Z,99132.97
2022-11-02T01:55:23.354Z,99118.44
2022-11-02T01:57:55.991Z,99098.00
2022-11-02T02:00:24.114Z,99114.06
2022-11-02T02:02:57.007Z,99127.94
2022-11-02T02:05:25.811Z,99118.44
2022-11-02T02:07:56.604Z,99127.78
2022-11-02T02:10:24.353Z,99105.25
2022-11-02T02:12:52.415Z,99147.78
2022-11-02T02:15:24.064Z,99196.47
2022-11-02T02:18:00.663Z,99167.09
2022-11-02T02:20:43.656Z,99154.94
2022-11-02T02:23:34.940Z,99178.97
2022-11-02T02:26:32.874Z,99179.13
2022-11-02T02:29:05.988Z,99207.78
2022-11-02T02:31:41.358Z,99231.97
2022-11-02T02:34:16.697Z,99249.22
2022-11-02T02:36:48.905Z,99260.69
2022-11-02T02:39:21.494Z,99271.88
2022-11-02T02:41:58.501Z,99279.72
2022-11-02T02:44:32.290Z,99281.53
2022-11-02T02:47:05.582Z,99254.69
2022-11-02T02:49:38.319Z,99265.19
2022-11-02T02:52:07.345Z,99292.88
2022-11-02T02:54:39.881Z,99276.22
2022-11-02T02:57:10.815Z,99286.88
2022-11-02T02:59:42.642Z,99256.50
2022-11-02T03:02:16.358Z,99285.19
2022-11-02T03:04:44.265Z,99285.88
2022-11-02T03:07:15.961Z,99271.19
2022-11-02T03:09:50.956Z,99235.63
2022-11-02T03:12:29.250Z,99229.47
2022-11-02T03:15:10.528Z,99259.03
2022-11-02T03:17:48.370Z,99253.84
2022-11-02T03:20:25.527Z,99295.53
2022-11-02T03:23:03.335Z,99304.22
2022-11-02T03:25:40.817Z,99271.19
2022-11-02T03:28:15.467Z,99292.19
2022-11-02T03:30:49.993Z,99258.19
2022-11-02T03:33:21.736Z,99240.81
2022-11-02T03:35:55.289Z,99234.78
2022-11-02T03:38:26.631Z,99269.50
2022-11-02T03:40:57.364Z,99263.50
2022-11-02T03:43:26.147Z,99246.84
2022-11-02T03:45:58.973Z,99290.50
2022-11-02T03:48:31.422Z,99248.78
2022-11-02T03:51:04.046Z,99251.34
2022-11-02T03:53:40.631Z,99267.00
2022-11-02T03:56:11.304Z,99290.38
2022-11-02T03:58:39.249Z,99293.03
2022-11-02T04:01:09.228Z,99321.72
2022-11-02T04:03:41.513Z,99319.06
2022-11-02T04:06:09.526Z,99297.50
2022-11-02T04:08:40.652Z,99317.53
2022-11-02T04:11:26.984Z,99325.22
2022-11-02T04:14:12.363Z,99348.59
2022-11-02T04:16:41.610Z,99340.75
2022-11-02T04:19:27.814Z,99324.38
2022-11-02T04:22:13.404Z,99323.53
2022-11-02T04:24:58.951Z,99329.41
2022-11-02T04:27:27.197Z,99332.22
2022-11-02T04:29:55.174Z,99316.53
2022-11-02T04:32:38.321Z,99313.03
2022-11-02T04:35:07.226Z,99305.19
2022-11-02T04:37:57.468Z,99273.31
2022-11-02T04:40:25.691Z,99297.50
2022-11-02T04:42:53.660Z,99298.50
2022-11-02T04:45:21.801Z,99290.66
2022-11-02T04:47:51.026Z,99260.16
2022-11-02T04:50:19.359Z,99228.78
2022-11-02T04:52:47.081Z,99228.09
2022-11-02T04:55:14.966Z,99233.41
2022-11-02T04:57:46.316Z,99232.28
2022-11-02T05:00:15.574Z,99240.25
2022-11-02T05:02:43.926Z,99256.91
2022-11-02T05:05:13.371Z,99219.41
2022-11-02T05:07:41.319Z,99243.91
2022-11-02T05:10:09.391Z,99233.56
2022-11-02T05:12:37.562Z,99204.88
2022-11-02T05:15:06.310Z,99215.06
2022-11-02T05:17:34.335Z,99222.06
2022-11-02T05:20:02.275Z,99226.41
2022-11-02T05:22:31.837Z,99253.25
2022-11-02T05:25:09.702Z,99219.56
2022-11-02T05:27:38.206Z,99188.50
2022-11-02T05:30:07.989Z,99208.38
2022-11-02T05:32:35.812Z,99184.31
2022-11-02T05:35:03.600Z,99170.19
2022-11-02T05:37:32.869Z,99160.84
2022-11-02T05:40:00.728Z,99141.63
2022-11-02T05:42:28.511Z,99129.63
2022-11-02T05:44:56.632Z,99113.97
2022-11-02T05:47:24.401Z,99105.28
2022-11-02T05:49:52.392Z,99082.66
2022-11-02T05:52:20.315Z,99116.47
2022-11-02T05:54:49.479Z,99097.47
2022-11-02T05:57:18.542Z,99077.63
2022-11-02T05:59:49.232Z,99039.31
2022-11-02T06:02:19.853Z,99031.75
2022-11-02T06:04:49.712Z,99013.59
2022-11-02T06:07:17.716Z,99009.28
2022-11-02T06:09:45.519Z,99028.28
2022-11-02T06:12:14.676Z,99017.09
2022-11-02T06:14:42.682Z,99015.28
2022-11-02T06:17:10.518Z,99021.28
2022-11-02T06:19:38.281Z,99058.31
2022-11-02T06:22:06.222Z,99054.13
2022-11-02T06:24:34.036Z,99048.28
2022-11-02T06:27:01.938Z,99035.28
2022-11-02T06:29:31.125Z,99027.31
2022-11-02T06:31:58.926Z,99036.97
2022-11-02T06:34:26.786Z,99045.78
2022-11-02T06:36:54.959Z,99054.97
2022-11-02T06:39:22.814Z,99080.28
2022-11-02T06:41:50.770Z,99082.78
2022-11-02T06:44:18.874Z,99129.63
2022-11-02T06:46:48.045Z,99134.78
2022-11-02T06:49:16.099Z,99148.63
2022-11-02T06:51:43.960Z,99181.66
2022-11-02T06:54:11.775Z,99209.34
2022-11-02T06:56:40.445Z,99247.41
2022-11-02T06:59:08.421Z,99314.31
2022-11-02T07:01:36.579Z,99349.88
2022-11-02T07:04:06.173Z,99356.03
2022-11-02T07:06:34.055Z,99317.13
2022-11-02T07:09:01.891Z,99296.13
2022-11-02T07:11:30.561Z,99332.50
2022-11-02T07:13:58.343Z,99364.56
2022-11-02T07:16:26.381Z,99351.69
2022-11-02T07:18:54.462Z,99382.06
2022-11-02T07:21:23.697Z,99361.91
2022-11-02T07:23:52.085Z,99377.56
2022-11-02T07:26:20.953Z,99371.56
2022-11-02T07:28:48.904Z,99348.19
2022-11-02T07:31:16.724Z,99342.84
2022-11-02T07:33:44.522Z,99367.38
2022-11-02T07:36:13.463Z,99347.50
2022-11-02T07:38:43.481Z,99339.50
2022-11-02T07:41:11.280Z,99336.16
2022-11-02T07:43:41.462Z,99300.47
2022-11-02T07:46:12.411Z,99355.19
2022-11-02T07:48:40.729Z,99380.38
2022-11-02T07:51:11.170Z,99361.50
2022-11-02T07:53:39.497Z,99396.91
2022-11-02T07:56:09.317Z,99382.91
2022-11-02T07:58:37.129Z,99425.50
2022-11-02T08:01:05.021Z,99438.66
2022-11-02T08:03:33.400Z,99466.41
2022-11-02T08:06:02.857Z,99468.91
2022-11-02T08:08:30.883Z,99486.00
2022-11-02T08:11:05.913Z,99527.91
2022-11-02T08:13:35.795Z,99585.22
2022-11-02T08:16:03.760Z,99599.25
2022-11-02T08:18:32.936Z,99611.44
2022-11-02T08:21:01.019Z,99614.94
2022-11-02T08:23:28.840Z,99598.41
2022-11-02T08:25:59.907Z,99617.50
2022-11-02T08:28:31.313Z,99614.84
2022-11-02T08:31:00.712Z,99640.22
2022-11-02T08:33:28.832Z,99695.91
2022-11-02T08:36:03.159Z,99754.13
2022-11-02T08:38:31.232Z,99769.72
2022-11-02T08:40:58.964Z,99815.03
2022-11-02T08:43:26.964Z,99823.47
2022-11-02T08:46:16.065Z,99843.66
2022-11-02T08:48:46.476Z,99894.19
2022-11-02T08:51:14.457Z,99921.19
2022-11-02T08:53:44.683Z,99957.00
2022-11-02T08:56:15.446Z,99964.72
2022-11-02T08:58:43.318Z,99998.00
2022-11-02T09:01:11.278Z,100000.41
2022-11-02T09:03:40.126Z,99996.31
2022-11-02T09:06:09.505Z,100034.69
2022-11-02T09:08:37.369Z,100020.63
2022-11-02T09:11:05.832Z,99966.69
2022-11-02T09:13:33.781Z,99947.31
2022-11-02T09:16:02.928Z,99899.53
2022-11-02T09:18:31.127Z,99887.19
2022-11-02T09:21:02.831Z,99963.88
2022-11-02T09:23:32.789Z,100068.72
2022-11-02T09:26:00.942Z,100058.88
2022-11-02T09:28:28.784Z,100059.72
2022-11-02T09:30:56.712Z,100055.50
2022-11-02T09:33:24.701Z,100130.53
2022-11-02T09:35:52.495Z,100170.38
2022-11-02T09:38:20.432Z,100194.97
2022-11-02T09:41:02.004Z,100155.59
2022-11-02T09:43:41.184Z,100142.63
2022-11-02T09:46:13.300Z,100159.97
2022-11-02T09:48:44.647Z,100223.69
2022-11-02T09:51:16.246Z,100183.59
2022-11-02T09:53:52.237Z,100155.59
2022-11-02T09:56:21.704Z,100220.56
2022-11-02T09:58:55.099Z,100222.72
2022-11-02T10:01:35.599Z,100239.44
2022-11-02T10:04:33.688Z,100213.25
2022-11-02T10:07:11.303Z,100159.25
2022-11-02T10:09:49.979Z,100163.47
2022-11-02T10:12:25.929Z,100146.88
2022-11-02T10:15:02.815Z,100153.06
2022-11-02T10:17:34.943Z,100154.75
2022-11-02T10:20:08.778Z,100156.72
2022-11-02T10:22:41.242Z,100164.31
2022-11-02T10:25:16.092Z,100183.59
2022-11-02T10:27:49.380Z,100154.75
2022-11-02T10:30:20.243Z,100160.94
2022-11-02T10:32:53.727Z,100197.50
2022-11-02T10:35:41.138Z,100181.06
2022-11-02T10:38:27.320Z,100190.47
2022-11-02T10:41:14.807Z,100260.28
2022-11-02T10:43:56.925Z,100372.03
2022-11-02T10:46:42.214Z,100402.47
2022-11-02T10:49:20.659Z,100399.09
2022-11-02T10:51:48.527Z,100342.19
2022-11-02T10:54:21.569Z,100316.03
2022-11-02T10:56:57.349Z,100278.59
2022-11-02T10:59:27.319Z,100286.47
2022-11-02T11:02:11.970Z,100257.59
2022-11-02T11:04:40.518Z,100274.09
2022-11-02T11:07:16.299Z,100248.88
2022-11-02T11:09:51.682Z,100260.16
2022-11-02T11:12:25.725Z,100264.63
2022-11-02T11:20:36.877Z,100226.22
2022-11-02T11:23:26.978Z,100229.75
2022-11-02T11:26:10.007Z,100186.97
2022-11-02T11:28:41.144Z,100178.09
2022-11-02T11:31:13.723Z,100131.13
2022-11-02T11:33:51.696Z,100131.13
2022-11-02T11:36:29.134Z,100139.00
2022-11-02T11:39:00.459Z,100139.88
2022-11-02T11:41:29.595Z,100125.06
2022-11-02T11:43:58.080Z,100151.97
2022-11-02T11:46:40.420Z,100156.44
2022-11-02T11:49:27.544Z,100142.41
2022-11-02T11:52:05.287Z,100097.94
2022-11-02T11:54:34.335Z,100107.50
2022-11-02T11:57:24.887Z,100071.09
2022-11-02T11:59:55.603Z,100070.13
2022-11-02T12:02:27.529Z,100059.59
2022-11-02T12:05:15.217Z,100048.19
2022-11-02T12:08:13.602Z,100037.94
2022-11-02T12:10:51.046Z,100057.75
2022-11-02T12:13:33.045Z,100029.09
2022-11-02T12:16:13.495Z,100021.22
2022-11-02T12:18:57.125Z,99974.97
2022-11-02T12:21:43.285Z,100028.25
2022-11-02T12:24:32.599Z,100029.94
2022-11-02T12:27:15.609Z,99972.31
2022-11-02T12:29:59.247Z,99923.00
2022-11-02T12:32:43.519Z,99932.16
2022-11-02T12:35:29.765Z,99908.00
2022-11-02T12:38:18.357Z,99906.03
2022-11-02T12:40:57.057Z,99939.16
2022-11-02T12:43:39.483Z,99895.66
2022-11-02T12:46:16.792Z,99907.00
2022-11-02T12:48:54.608Z,99882.69
2022-11-02T12:51:29.174Z,99889.59
2022-11-02T12:53:59.402Z,99895.66
2022-11-02T12:56:33.865Z,99905.19
2022-11-02T12:59:01.898Z,99907.84
2022-11-02T13:01:36.958Z,99909.41
2022-11-02T13:04:14.671Z,99975.69
2022-11-02T13:06:47.366Z,100045.41
2022-11-02T13:09:23.242Z,100076.88
2022-11-02T13:11:57.939Z,100096.13
2022-11-02T13:14:29.640Z,100068.88
2022-11-02T13:17:04.573Z,100066.19
2022-11-02T13:19:37.470Z,100008.88
2022-11-02T13:22:10.275Z,100029.66
2022-11-02T13:24:43.369Z,100055.09
2022-11-02T13:27:36.604Z,99984.38
2022-11-02T13:30:14.417Z,99988.88
2022-11-02T13:32:46.596Z,99937.47
2022-11-02T13:35:20.298Z,99888.63
2022-11-02T13:37:54.843Z,99879.06
2022-11-02T13:40:27.056Z,99827.66
2022-11-02T13:43:23.346Z,99806.91
2022-11-02T13:46:11.886Z,99767.63
2022-11-02T13:48:54.498Z,99732.78
2022-11-02T13:51:30.370Z,99771.81
2022-11-02T13:54:04.552Z,99747.41
2022-11-02T13:56:36.306Z,99718.91
2022-11-02T13:59:07.430Z,99695.47
2022-11-02T14:01:39.777Z,99685.81
2022-11-02T14:04:10.282Z,99630.25
2022-11-02T14:06:48.785Z,99582.41
2022-11-02T14:09:30.699Z,99530.72
2022-11-02T14:12:28.257Z,99530.16
2022-11-02T14:15:47.619Z,99480.66
2022-11-02T14:18:28.668Z,99433.75
2022-11-02T14:20:56.854Z,99431.09
2022-11-02T14:23:41.093Z,99427.72
2022-11-02T14:26:56.314Z,99384.31
2022-11-02T14:29:51.469Z,99352.94
2022-11-02T14:32:27.281Z,99355.44
2022-11-02T14:35:17.692Z,99362.72
2022-11-02T14:38:02.119Z,99326.06
2022-11-02T14:40:38.835Z,99294.16
2022-11-02T14:43:30.527Z,99248.25
2022-11-02T14:46:09.595Z,99211.72
2022-11-02T14:48:46.734Z,99180.38
2022-11-02T14:51:20.489Z,99172.69
2022-11-02T14:53:51.002Z,99145.88
2022-11-02T14:56:19.298Z,99097.19
2022-11-02T14:58:55.551Z,99059.16
2022-11-02T15:01:24.307Z,99101.66
2022-11-02T15:03:52.882Z,99090.19
2022-11-02T15:06:25.562Z,99034.00
2022-11-02T15:08:56.402Z,98990.66
2022-11-02T15:11:47.522Z,99063.50
2022-11-02T15:14:55.224Z,98993.31
2022-11-02T15:17:52.374Z,98956.03
2022-11-02T15:20:32.729Z,98928.50
2022-11-02T15:23:28.469Z,98913.69
2022-11-02T15:25:59.861Z,98933.53
2022-11-02T15:28:30.572Z,98965.53
2022-11-02T15:31:05.227Z,98955.19
2022-11-02T15:33:38.079Z,99012.31
2022-11-02T15:36:09.453Z,98980.34
2022-11-02T15:38:40.223Z,98968.03
2022-11-02T15:41:22.091Z,99005.47
2022-11-02T15:44:11.981Z,99021.69
2022-11-02T15:46:53.518Z,99052.19
2022-11-02T15:49:36.674Z,99027.03
2022-11-02T15:52:15.081Z,99050.50
2022-11-02T15:55:05.395Z,99087.66
2022-11-02T15:57:44.383Z,99080.69
2022-11-02T16:00:19.215Z,99076.34
2022-11-02T16:02:50.136Z,99077.34
2022-11-02T16:05:21.956Z,99067.81
2022-11-02T16:10:40.522Z,99074.66
2022-11-02T16:13:17.478Z,99039.31
2022-11-02T16:15:46.511Z,98989.81
2022-11-02T16:18:27.166Z,98973.34
2022-11-02T16:20:57.164Z,98999.63
2022-11-02T16:23:28.044Z,99039.03
2022-11-02T16:25:58.230Z,99072.84
2022-11-02T16:28:27.704Z,99052.19
2022-11-02T16:31:00.127Z,99014.28
2022-11-02T16:33:33.312Z,99040.00
2022-11-02T16:36:02.260Z,99040.00
2022-11-02T16:38:30.578Z,99028.16
2022-11-02T16:40:58.827Z,98997.66
2022-11-02T16:43:27.938Z,99035.84
2022-11-02T16:46:03.580Z,99005.47
2022-11-02T16:48:34.152Z,99018.47
2022-11-02T16:51:11.924Z,99037.34
2022-11-02T16:53:42.649Z,99053.31
2022-11-02T16:56:27.686Z,99058.31
2022-11-02T16:59:00.898Z,99080.69
2022-11-02T17:01:35.081Z,99086.00
2022-11-02T17:04:15.813Z,99091.31
2022-11-02T17:06:44.035Z,99103.31
2022-11-02T17:09:24.222Z,99088.13
2022-11-02T17:11:53.281Z,99132.97
2022-11-02T17:14:22.627Z,99161.38
2022-11-02T17:17:06.311Z,99171.88
2022-11-02T17:19:54.373Z,99173.53
2022-11-02T17:22:27.216Z,99168.22
2022-11-02T17:28:02.422Z,99185.72
2022-11-02T17:30:47.922Z,99183.88
2022-11-02T17:33:28.774Z,99183.06
2022-11-02T17:36:05.848Z,99187.38
2022-11-02T17:38:34.747Z,99183.06
2022-11-02T17:41:23.153Z,99162.34
2022-11-02T17:43:50.153Z,99167.38
2022-11-02T17:46:18.089Z,99170.34
2022-11-02T17:48:45.907Z,99185.72
2022-11-02T17:51:15.474Z,99189.34
2022-11-02T17:53:43.429Z,99219.41
2022-11-02T17:56:12.245Z,99180.53
2022-11-02T17:58:40.812Z,99197.03
2022-11-02T18:01:13.039Z,99198.03
2022-11-02T18:03:41.020Z,99200.25
2022-11-02T18:06:09.404Z,99209.06
2022-11-02T18:08:52.458Z,99210.75
2022-11-02T18:11:25.870Z,99215.06
2022-11-02T18:13:54.238Z,99220.25
2022-11-02T18:16:22.256Z,99217.72
2022-11-02T18:18:50.232Z,99204.72
2022-11-02T18:21:17.995Z,99216.06
2022-11-02T18:23:47.270Z,99216.91
2022-11-02T18:26:15.306Z,99186.69
2022-11-02T18:28:43.316Z,99157.19
2022-11-02T18:31:11.782Z,99138.00
2022-11-02T18:33:39.671Z,99129.31
2022-11-02T18:36:10.112Z,99116.63
2022-11-02T18:38:38.579Z,99174.53
2022-11-02T18:41:23.080Z,99156.34
2022-11-02T18:43:51.010Z,99138.97
2022-11-02T18:46:19.177Z,99132.97
2022-11-02T18:48:47.449Z,99108.66
2022-11-02T18:51:15.617Z,99086.28
2022-11-02T18:53:43.513Z,99079.16
2022-11-02T18:56:13.254Z,99124.00
2022-11-02T18:58:41.038Z,99099.97
2022-11-02T19:01:10.308Z,99074.81
2022-11-02T19:03:38.186Z,99036.81
2022-11-02T19:06:24.150Z,99015.13
2022-11-02T19:09:09.525Z,99080.69
2022-11-02T19:11:38.740Z,99089.50
2022-11-02T19:14:06.727Z,99045.31
2022-11-02T19:16:34.487Z,99009.13
2022-11-02T19:19:02.434Z,98984.97
2022-11-02T19:21:30.615Z,98959.66
2022-11-02T19:23:58.400Z,98998.78
2022-11-02T19:26:26.423Z,99011.63
2022-11-02T19:28:57.179Z,99023.78
2022-11-02T19:31:26.838Z,99008.28
2022-11-02T19:33:54.864Z,98972.50
2022-11-02T19:36:23.032Z,98997.94
2022-11-02T19:38:50.988Z,98983.81
2022-11-02T19:41:19.522Z,98974.47
2022-11-02T19:43:47.449Z,98966.66
2022-11-02T19:46:18.685Z,98960.50
2022-11-02T19:48:47.069Z,98944.28
2022-11-02T19:51:20.153Z,98920.25
2022-11-02T19:53:50.262Z,98949.34
2022-11-02T19:56:19.339Z,98937.44
2022-11-02T19:58:48.386Z,98919.97
2022-11-02T20:01:19.584Z,98901.81
2022-11-02T20:03:48.348Z,98901.25
2022-11-02T20:06:18.660Z,98884.50
2022-11-02T20:08:49.536Z,98867.03
2022-11-02T20:11:17.771Z,98848.03
2022-11-02T20:13:47.063Z,98819.44
2022-11-02T20:16:18.365Z,98791.09
2022-11-02T20:18:49.179Z,98762.47
2022-11-02T20:21:19.467Z,98732.22
2022-11-02T20:23:47.897Z,98688.97
2022-11-02T20:26:17.665Z,98652.69
2022-11-02T20:28:47.508Z,98636.38
2022-11-02T20:31:18.635Z,98607.81
2022-11-02T20:33:47.252Z,98577.56
2022-11-02T20:36:15.664Z,98553.31
2022-11-02T20:38:44.014Z,98582.03
2022-11-02T20:41:14.623Z,98607.81
2022-11-02T20:43:43.871Z,98617.44
2022-11-02T20:49:19.892Z,98560.28
2022-11-02T20:51:53.595Z,98549.94
2022-11-02T20:54:22.154Z,98575.59
2022-11-02T20:56:50.566Z,98636.09
2022-11-02T20:59:18.938Z,98622.44
2022-11-02T21:01:47.421Z,98589.31
2022-11-02T21:04:20.699Z,98573.38
2022-11-02T21:06:49.511Z,98519.69
2022-11-02T21:09:18.212Z,98474.00
2022-11-02T21:12:03.709Z,98438.63
2022-11-02T21:14:31.758Z,98373.63
2022-11-02T21:16:59.631Z,98356.59
2022-11-02T21:19:29.543Z,98318.75
2022-11-02T21:21:59.917Z,98280.06
2022-11-02T21:24:29.385Z,98223.16
2022-11-02T21:26:57.560Z,98242.75
2022-11-02T21:29:25.932Z,98225.50
2022-11-02T21:31:53.897Z,98195.59
2022-11-02T21:34:21.728Z,98128.09
2022-11-02T21:36:51.148Z,98077.38
2022-11-02T21:39:19.171Z,98105.72
2022-11-02T21:41:47.190Z,98126.59
2022-11-02T21:44:15.535Z,98065.25
2022-11-02T21:46:43.540Z,98009.56
2022-11-02T21:49:13.189Z,97965.81
2022-11-02T21:51:42.755Z,97926.22
2022-11-02T21:54:12.357Z,97950.25
2022-11-02T21:56:40.268Z,97972.47
2022-11-02T21:59:09.866Z,97959.84
2022-11-02T22:01:48.681Z,97946.94
2022-11-02T22:04:19.546Z,97968.28
2022-11-02T22:06:47.623Z,98038.56
2022-11-02T22:09:16.942Z,98013.03
2022-11-02T22:11:45.177Z,98006.94
2022-11-02T22:14:13.002Z,97954.53
2022-11-02T22:16:42.231Z,97889.16
2022-11-02T22:19:11.306Z,97865.97
2022-11-02T22:21:41.030Z,97830.69
2022-11-02T22:24:10.073Z,97897.75
2022-11-02T22:26:42.967Z,97990.53
2022-11-02T22:29:11.072Z,98032.75
2022-11-02T22:31:40.806Z,98006.94
2022-11-02T22:34:14.181Z,98059.59
2022-11-02T22:36:43.936Z,98082.53
2022-11-02T22:39:12.691Z,98096.44
2022-11-02T22:41:43.965Z,98071.53
2022-11-02T22:44:14.340Z,98128.25
2022-11-02T22:46:45.321Z,98226.47
2022-11-02T22:49:14.741Z,98255.00
2022-11-02T22:51:45.697Z,98257.66
2022-11-02T22:54:15.939Z,98208.56
2022-11-02T22:56:46.554Z,98155.94
2022-11-02T22:59:15.977Z,98144.81
2022-11-02T23:01:44.375Z,98168.03
2022-11-02T23:04:13.479Z,98161.22
2022-11-02T23:06:41.674Z,98117.97
2022-11-02T23:09:12.066Z,98113.66
2022-11-02T23:11:39.999Z,98117.31
2022-11-02T23:14:11.345Z,98045.00
2022-11-02T23:16:42.387Z,98030.94
2022-11-02T23:19:30.327Z,98067.22
2022-11-02T23:22:17.399Z,98074.84
2022-11-02T23:25:07.635Z,98006.94
2022-11-02T23:51:51.106Z,97831.53
2022-11-02T23:54:36.723Z,97792.59
2022-11-02T23:57:04.740Z,97768.97
2022-11-02T23:59:32.697Z,97729.25
